createdAt,value
2023-05-17T00:01:01.801Z,9.40
2023-05-17T00:03:28.832Z,8.50
2023-05-17T00:08:34.702Z,15.00
2023-05-17T00:11:01.711Z,7.90
2023-05-17T00:13:28.550Z,6.70
2023-05-17T00:15:55.352Z,8.60
2023-05-17T00:18:22.567Z,6.90
2023-05-17T00:20:49.535Z,4.50
2023-05-17T00:23:16.374Z,4.00
2023-05-17T00:25:43.409Z,5.90
2023-05-17T00:28:10.230Z,7.30
2023-05-17T00:30:37.177Z,7.70
2023-05-17T00:33:04.499Z,11.50
2023-05-17T00:35:31.516Z,7.50
2023-05-17T00:37:58.441Z,8.20
2023-05-17T00:40:25.337Z,10.40
2023-05-17T00:42:52.146Z,4.70
2023-05-17T00:45:19.000Z,10.60
2023-05-17T00:47:46.377Z,13.00
2023-05-17T00:50:13.483Z,11.10
2023-05-17T00:52:40.391Z,9.60
2023-05-17T00:55:07.982Z,13.00
2023-05-17T00:57:35.253Z,5.70
2023-05-17T01:00:02.323Z,5.50
2023-05-17T01:02:29.354Z,5.10
2023-05-17T01:04:56.350Z,13.00
2023-05-17T01:07:23.686Z,9.60
2023-05-17T01:09:50.720Z,7.10
2023-05-17T01:12:43.901Z,6.60
2023-05-17T01:15:24.224Z,5.90
2023-05-17T01:18:12.733Z,6.20
2023-05-17T01:20:47.658Z,6.90
2023-05-17T01:23:42.258Z,7.50
2023-05-17T01:26:21.913Z,11.10
2023-05-17T01:28:52.548Z,9.30
2023-05-17T01:31:19.672Z,7.60
2023-05-17T01:33:47.071Z,7.80
2023-05-17T01:36:14.117Z,6.00
2023-05-17T01:38:41.697Z,9.70
2023-05-17T01:41:14.301Z,7.30
2023-05-17T01:44:07.546Z,6.80
2023-05-17T01:46:39.133Z,6.00
2023-05-17T01:49:15.170Z,7.30
2023-05-17T01:51:51.210Z,10.10
2023-05-17T01:54:22.029Z,10.10
2023-05-17T01:56:52.068Z,6.40
2023-05-17T01:59:25.249Z,7.00
2023-05-17T02:02:06.381Z,7.00
2023-05-17T02:04:33.302Z,15.40
2023-05-17T02:07:02.925Z,12.00
2023-05-17T02:09:30.172Z,6.50
2023-05-17T02:11:57.388Z,9.10
2023-05-17T02:14:24.239Z,10.20
2023-05-17T02:16:51.176Z,10.10
2023-05-17T02:19:18.143Z,8.80
2023-05-17T02:21:45.152Z,7.50
2023-05-17T02:24:12.092Z,5.20
2023-05-17T02:26:42.917Z,5.80
2023-05-17T02:29:11.260Z,6.80
2023-05-17T02:31:38.160Z,4.80
2023-05-17T02:34:05.048Z,9.00
2023-05-17T02:36:32.650Z,7.50
2023-05-17T02:38:59.577Z,9.10
2023-05-17T02:41:26.401Z,6.20
2023-05-17T02:43:53.310Z,6.10
2023-05-17T02:46:20.148Z,7.50
2023-05-17T02:48:46.977Z,10.10
2023-05-17T02:51:14.198Z,6.20
2023-05-17T02:53:41.045Z,8.80
2023-05-17T02:56:08.510Z,8.40
2023-05-17T02:58:35.606Z,7.90
2023-05-17T03:01:02.882Z,7.80
2023-05-17T03:03:31.782Z,7.30
2023-05-17T03:06:02.676Z,8.20
2023-05-17T03:08:29.805Z,8.20
2023-05-17T03:10:57.544Z,7.80
2023-05-17T03:13:24.596Z,9.10
2023-05-17T03:15:51.545Z,6.40
2023-05-17T03:18:18.536Z,5.10
2023-05-17T03:20:45.841Z,5.90
2023-05-17T03:23:12.833Z,5.90
2023-05-17T03:25:49.067Z,7.90
2023-05-17T03:28:16.171Z,8.00
2023-05-17T03:30:43.746Z,7.00
2023-05-17T03:33:10.750Z,4.90
2023-05-17T03:35:37.759Z,10.20
2023-05-17T03:38:04.637Z,4.40
2023-05-17T03:40:32.151Z,5.60
2023-05-17T03:42:59.821Z,4.90
2023-05-17T03:45:27.775Z,9.60
2023-05-17T03:47:55.114Z,8.70
2023-05-17T03:50:22.829Z,5.00
2023-05-17T03:52:50.489Z,7.70
2023-05-17T03:55:17.625Z,5.40
2023-05-17T03:57:44.507Z,5.90
2023-05-17T04:00:12.607Z,8.60
2023-05-17T04:02:42.287Z,7.80
2023-05-17T04:05:09.749Z,7.20
2023-05-17T04:07:37.172Z,4.50
2023-05-17T04:10:04.306Z,7.10
2023-05-17T04:12:31.188Z,8.60
2023-05-17T04:14:58.875Z,13.40
2023-05-17T04:17:26.116Z,6.80
2023-05-17T04:19:52.983Z,6.40
2023-05-17T04:22:20.979Z,6.80
2023-05-17T04:24:47.938Z,8.70
2023-05-17T04:27:15.326Z,7.20
2023-05-17T04:29:42.561Z,5.90
2023-05-17T04:32:10.123Z,5.70
2023-05-17T04:34:37.613Z,4.20
2023-05-17T04:37:05.305Z,6.10
2023-05-17T04:39:33.168Z,5.10
2023-05-17T04:42:00.170Z,8.80
2023-05-17T04:44:27.346Z,7.10
2023-05-17T04:46:54.712Z,7.00
2023-05-17T04:49:21.665Z,6.60
2023-05-17T04:51:48.680Z,4.90
2023-05-17T04:54:16.131Z,6.20
2023-05-17T04:56:43.487Z,5.10
2023-05-17T04:59:14.619Z,9.90
2023-05-17T05:01:41.760Z,5.50
2023-05-17T05:04:08.797Z,11.80
2023-05-17T05:06:40.844Z,11.10
2023-05-17T05:09:08.239Z,5.70
2023-05-17T05:11:36.434Z,6.90
2023-05-17T05:14:03.819Z,4.90
2023-05-17T05:16:31.067Z,9.60
2023-05-17T05:18:58.469Z,5.10
2023-05-17T05:21:25.862Z,4.50
2023-05-17T05:23:52.924Z,10.50
2023-05-17T05:26:20.296Z,8.60
2023-05-17T05:28:47.408Z,14.30
2023-05-17T05:31:14.581Z,4.70
2023-05-17T05:33:45.924Z,6.20
2023-05-17T05:36:13.263Z,5.30
2023-05-17T05:38:41.077Z,5.70
2023-05-17T05:41:08.079Z,15.80
2023-05-17T05:43:37.896Z,5.20
2023-05-17T05:46:05.117Z,5.20
2023-05-17T05:48:32.309Z,6.20
2023-05-17T05:50:59.544Z,7.80
2023-05-17T05:53:26.704Z,6.30
2023-05-17T05:55:55.705Z,7.00
2023-05-17T05:58:22.628Z,4.70
2023-05-17T06:00:49.560Z,7.50
2023-05-17T06:03:16.562Z,11.00
2023-05-17T06:05:43.758Z,9.50
2023-05-17T06:08:10.843Z,4.10
2023-05-17T06:10:37.716Z,6.60
2023-05-17T06:13:04.574Z,5.70
2023-05-17T06:15:31.487Z,6.70
2023-05-17T06:17:58.501Z,7.30
2023-05-17T06:20:25.558Z,10.30
2023-05-17T06:22:52.806Z,7.10
2023-05-17T06:25:20.092Z,4.60
2023-05-17T06:27:47.046Z,7.90
2023-05-17T06:30:14.338Z,9.80
2023-05-17T06:32:44.880Z,4.90
2023-05-17T06:35:11.889Z,6.50
2023-05-17T06:37:38.794Z,5.70
2023-05-17T06:40:14.896Z,14.70
2023-05-17T06:42:43.072Z,6.30
2023-05-17T06:45:11.245Z,8.40
2023-05-17T06:47:38.399Z,7.60
2023-05-17T06:50:06.993Z,4.80
2023-05-17T06:52:34.018Z,11.70
2023-05-17T06:55:01.077Z,3.90
2023-05-17T06:57:27.995Z,4.70
2023-05-17T06:59:54.842Z,10.10
2023-05-17T07:02:22.065Z,5.80
2023-05-17T07:04:49.028Z,9.20
2023-05-17T07:07:16.519Z,6.30
2023-05-17T07:09:43.732Z,8.10
2023-05-17T07:12:10.999Z,6.00
2023-05-17T07:14:37.829Z,6.40
2023-05-17T07:17:05.116Z,9.30
2023-05-17T07:19:32.315Z,4.00
2023-05-17T07:21:59.328Z,3.80
2023-05-17T07:24:26.175Z,5.00
2023-05-17T07:26:53.062Z,8.60
2023-05-17T07:29:19.896Z,5.50
2023-05-17T07:31:47.071Z,2.90
2023-05-17T07:34:14.274Z,5.30
2023-05-17T07:36:41.290Z,3.50
2023-05-17T07:39:09.326Z,6.10
2023-05-17T07:41:36.947Z,7.30
2023-05-17T07:44:03.938Z,10.40
2023-05-17T07:46:30.860Z,5.30
2023-05-17T07:48:58.961Z,14.50
2023-05-17T07:51:26.517Z,4.30
2023-05-17T07:53:53.514Z,6.30
2023-05-17T07:56:20.621Z,8.00
2023-05-17T07:58:47.567Z,5.00
2023-05-17T08:01:14.485Z,6.60
2023-05-17T08:03:48.411Z,7.90
2023-05-17T08:06:16.692Z,5.30
2023-05-17T08:08:43.846Z,6.50
2023-05-17T08:11:11.452Z,6.10
2023-05-17T08:13:38.291Z,10.10
2023-05-17T08:16:13.476Z,6.30
2023-05-17T08:18:42.892Z,3.90
2023-05-17T08:21:11.464Z,8.10
2023-05-17T08:23:39.102Z,7.00
2023-05-17T08:26:06.366Z,5.50
2023-05-17T08:28:33.630Z,5.00
2023-05-17T08:31:00.546Z,4.30
2023-05-17T08:33:27.571Z,5.30
2023-05-17T08:35:55.617Z,8.50
2023-05-17T08:38:22.795Z,8.20
2023-05-17T08:40:56.464Z,4.80
2023-05-17T08:43:26.884Z,5.30
2023-05-17T08:45:54.615Z,5.90
2023-05-17T08:48:22.057Z,8.50
2023-05-17T08:50:50.843Z,7.10
2023-05-17T08:53:18.233Z,6.20
2023-05-17T08:55:47.416Z,6.00
2023-05-17T08:58:15.179Z,5.10
2023-05-17T09:00:42.256Z,16.10
2023-05-17T09:03:09.682Z,4.20
2023-05-17T09:05:36.737Z,7.60
2023-05-17T09:08:03.970Z,3.50
2023-05-17T09:10:31.791Z,3.10
2023-05-17T09:12:58.871Z,6.10
2023-05-17T09:15:27.281Z,4.40
2023-05-17T09:17:54.353Z,4.80
2023-05-17T09:20:35.505Z,7.30
2023-05-17T09:23:04.517Z,6.00
2023-05-17T09:25:31.967Z,5.80
2023-05-17T09:28:09.412Z,1.90
2023-05-17T09:30:38.321Z,3.50
2023-05-17T09:33:11.802Z,7.20
2023-05-17T09:35:40.076Z,2.40
2023-05-17T09:38:11.602Z,6.30
2023-05-17T09:40:45.227Z,4.30
2023-05-17T09:43:12.463Z,4.70
2023-05-17T09:45:39.526Z,5.50
2023-05-17T09:48:19.243Z,7.80
2023-05-17T09:50:49.833Z,7.10
2023-05-17T09:53:27.464Z,5.60
2023-05-17T09:55:55.764Z,4.20
2023-05-17T09:58:23.233Z,4.20
2023-05-17T10:00:54.988Z,4.20
2023-05-17T10:03:22.423Z,4.10
2023-05-17T10:05:52.315Z,7.80
2023-05-17T10:08:23.233Z,4.20
2023-05-17T10:10:53.050Z,5.60
2023-05-17T10:13:22.619Z,3.20
2023-05-17T10:15:49.463Z,2.80
2023-05-17T10:18:16.611Z,5.40
2023-05-17T10:20:44.148Z,3.60
2023-05-17T10:23:14.265Z,3.00
2023-05-17T10:25:41.254Z,7.80
2023-05-17T10:28:08.241Z,6.80
2023-05-17T10:30:35.081Z,5.40
2023-05-17T10:33:02.232Z,2.80
2023-05-17T10:35:29.577Z,3.90
2023-05-17T10:37:56.729Z,4.60
2023-05-17T10:40:23.867Z,3.70
2023-05-17T10:42:52.580Z,4.40
2023-05-17T10:45:25.483Z,11.80
2023-05-17T10:47:52.994Z,4.20
2023-05-17T10:50:24.385Z,4.10
2023-05-17T10:52:51.865Z,2.70
2023-05-17T10:55:27.434Z,3.40
2023-05-17T10:58:11.660Z,4.40
2023-05-17T11:00:42.738Z,4.50
2023-05-17T11:03:14.297Z,2.30
2023-05-17T11:05:46.432Z,2.30
2023-05-17T11:08:15.918Z,1.40
2023-05-17T11:11:17.402Z,6.90
2023-05-17T11:13:52.398Z,2.00
2023-05-17T11:16:21.602Z,5.50
2023-05-17T11:18:52.843Z,3.80
2023-05-17T11:21:21.562Z,2.30
2023-05-17T11:23:49.274Z,6.70
2023-05-17T11:26:24.162Z,7.40
2023-05-17T11:29:01.573Z,5.10
2023-05-17T11:31:36.120Z,2.40
2023-05-17T11:34:03.876Z,2.90
2023-05-17T11:36:31.554Z,1.40
2023-05-17T11:39:14.899Z,2.30
2023-05-17T11:41:52.038Z,1.60
2023-05-17T11:44:28.997Z,4.50
2023-05-17T11:47:03.731Z,4.70
2023-05-17T11:49:35.545Z,1.60
2023-05-17T11:52:07.177Z,5.00
2023-05-17T11:54:34.893Z,7.20
2023-05-17T11:57:04.690Z,2.70
2023-05-17T11:59:38.601Z,6.70
2023-05-17T12:02:05.900Z,2.40
2023-05-17T12:04:36.495Z,6.20
2023-05-17T12:07:04.250Z,2.80
2023-05-17T12:09:31.502Z,3.20
2023-05-17T12:12:00.143Z,2.90
2023-05-17T12:14:27.752Z,3.40
2023-05-17T12:16:56.491Z,4.40
2023-05-17T12:19:25.239Z,3.80
2023-05-17T12:21:52.140Z,3.30
2023-05-17T12:26:31.102Z,3.10
2023-05-17T12:28:59.153Z,8.30
2023-05-17T12:31:32.536Z,6.60
2023-05-17T12:33:59.681Z,5.20
2023-05-17T12:36:28.532Z,6.40
2023-05-17T12:38:55.946Z,3.70
2023-05-17T12:41:23.113Z,3.70
2023-05-17T12:43:50.575Z,3.10
2023-05-17T12:46:22.630Z,5.40
2023-05-17T12:48:51.398Z,4.90
2023-05-17T12:51:22.868Z,6.30
2023-05-17T12:53:49.722Z,2.90
2023-05-17T12:56:37.922Z,5.60
2023-05-17T12:59:17.428Z,3.30
2023-05-17T13:01:45.070Z,7.60
2023-05-17T13:04:12.690Z,4.30
2023-05-17T13:06:57.174Z,7.30
2023-05-17T13:09:25.711Z,10.00
2023-05-17T13:11:56.596Z,8.80
2023-05-17T13:14:34.335Z,4.30
2023-05-17T13:17:02.659Z,4.70
2023-05-17T13:19:29.631Z,4.40
2023-05-17T13:21:56.922Z,5.00
2023-05-17T13:24:25.088Z,6.90
2023-05-17T13:26:52.107Z,6.70
2023-05-17T13:29:22.857Z,4.20
2023-05-17T13:31:55.546Z,7.40
2023-05-17T13:34:22.355Z,5.60
2023-05-17T13:36:49.341Z,6.10
2023-05-17T13:39:16.885Z,6.20
2023-05-17T13:41:43.734Z,5.60
2023-05-17T13:44:10.870Z,5.10
2023-05-17T13:46:37.945Z,5.30
2023-05-17T13:49:05.005Z,2.70
2023-05-17T13:51:31.886Z,5.20
2023-05-17T13:53:58.871Z,5.70
2023-05-17T13:56:25.915Z,8.10
2023-05-17T13:58:53.135Z,7.10
2023-05-17T14:01:20.060Z,7.10
2023-05-17T14:03:47.050Z,2.70
2023-05-17T14:06:14.097Z,3.60
2023-05-17T14:08:42.009Z,6.30
2023-05-17T14:11:08.866Z,4.50
2023-05-17T14:13:35.690Z,3.70
2023-05-17T14:16:02.541Z,5.30
2023-05-17T14:18:31.544Z,7.80
2023-05-17T14:20:58.698Z,5.90
2023-05-17T14:23:26.365Z,4.20
2023-05-17T14:25:53.316Z,6.50
2023-05-17T14:28:20.142Z,16.80
2023-05-17T14:30:47.496Z,8.80
2023-05-17T14:33:14.417Z,6.40
2023-05-17T14:35:41.485Z,7.70
2023-05-17T14:38:08.338Z,9.20
2023-05-17T14:40:35.293Z,4.30
2023-05-17T14:43:02.150Z,7.80
2023-05-17T14:45:29.065Z,4.00
2023-05-17T14:47:55.961Z,4.10
2023-05-17T14:50:22.912Z,7.20
2023-05-17T14:52:49.987Z,7.40
2023-05-17T14:55:17.059Z,7.60
2023-05-17T14:57:43.848Z,7.90
2023-05-17T15:00:11.631Z,5.90
2023-05-17T15:02:38.534Z,6.70
2023-05-17T15:05:06.205Z,17.70
2023-05-17T15:07:33.968Z,6.90
2023-05-17T15:10:01.420Z,16.10
2023-05-17T15:12:28.579Z,5.20
2023-05-17T15:14:55.436Z,6.30
2023-05-17T15:17:23.105Z,6.50
2023-05-17T15:19:50.606Z,5.40
2023-05-17T15:22:18.259Z,9.50
2023-05-17T15:24:45.319Z,8.30
2023-05-17T15:27:15.997Z,7.50
2023-05-17T15:29:43.908Z,4.70
2023-05-17T15:32:10.862Z,6.60
2023-05-17T15:34:37.666Z,13.00
2023-05-17T15:37:04.694Z,15.00
2023-05-17T15:39:31.583Z,6.60
2023-05-17T15:41:58.399Z,9.50
2023-05-17T15:44:25.394Z,8.60
2023-05-17T15:46:52.264Z,5.40
2023-05-17T15:49:19.267Z,5.50
2023-05-17T15:51:46.670Z,10.40
2023-05-17T15:54:14.467Z,8.70
2023-05-17T15:56:42.109Z,9.70
2023-05-17T15:59:08.973Z,6.00
2023-05-17T16:01:36.220Z,10.60
2023-05-17T16:04:03.109Z,8.40
2023-05-17T16:06:36.072Z,8.30
2023-05-17T16:11:30.017Z,6.70
2023-05-17T16:13:57.319Z,11.30
2023-05-17T16:16:24.210Z,7.20
2023-05-17T16:18:51.376Z,9.40
2023-05-17T16:21:18.636Z,6.50
2023-05-17T16:23:46.598Z,9.70
2023-05-17T16:26:13.415Z,5.70
2023-05-17T16:28:40.800Z,5.80
2023-05-17T16:31:07.765Z,6.00
2023-05-17T16:33:34.927Z,11.00
2023-05-17T16:36:04.015Z,4.50
2023-05-17T16:38:31.467Z,11.50
2023-05-17T16:41:03.206Z,8.30
2023-05-17T16:43:31.015Z,11.10
2023-05-17T16:45:57.919Z,8.60
2023-05-17T16:48:24.978Z,11.80
2023-05-17T16:50:52.016Z,15.60
2023-05-17T16:53:18.913Z,9.70
2023-05-17T16:55:45.820Z,9.30
2023-05-17T16:58:13.249Z,7.70
2023-05-17T17:00:40.656Z,6.20
2023-05-17T17:03:09.583Z,7.90
2023-05-17T17:05:37.336Z,10.60
2023-05-17T17:08:04.211Z,6.90
2023-05-17T17:10:31.548Z,8.80
2023-05-17T17:12:58.654Z,11.00
2023-05-17T17:15:25.556Z,20.30
2023-05-17T17:17:52.542Z,12.40
2023-05-17T17:20:19.864Z,13.10
2023-05-17T17:22:47.055Z,6.90
2023-05-17T17:25:13.986Z,16.70
2023-05-17T17:27:40.885Z,10.60
2023-05-17T17:30:08.497Z,6.90
2023-05-17T17:32:35.541Z,9.90
2023-05-17T17:35:02.703Z,7.80
2023-05-17T17:37:29.527Z,15.10
2023-05-17T17:39:56.406Z,9.20
2023-05-17T17:42:23.414Z,7.50
2023-05-17T17:44:50.293Z,7.70
2023-05-17T17:47:17.353Z,7.10
2023-05-17T17:49:44.424Z,7.70
2023-05-17T17:52:11.326Z,7.70
2023-05-17T17:54:38.130Z,14.40
2023-05-17T17:57:05.625Z,10.00
2023-05-17T17:59:32.563Z,9.90
2023-05-17T18:02:02.366Z,17.10
2023-05-17T18:04:29.237Z,16.60
2023-05-17T18:06:56.401Z,11.80
2023-05-17T18:09:23.736Z,15.80
2023-05-17T18:11:51.072Z,13.40
2023-05-17T18:14:18.186Z,27.30
2023-05-17T18:16:45.294Z,13.90
2023-05-17T18:19:12.350Z,14.60
2023-05-17T18:21:39.401Z,10.60
2023-05-17T18:24:07.067Z,10.80
2023-05-17T18:26:33.898Z,14.40
2023-05-17T18:29:01.973Z,19.10
2023-05-17T18:31:28.902Z,14.60
2023-05-17T18:33:57.310Z,13.60
2023-05-17T18:36:24.515Z,14.10
2023-05-17T18:38:51.348Z,16.80
2023-05-17T18:41:18.269Z,11.50
2023-05-17T18:43:45.149Z,17.00
2023-05-17T18:46:13.185Z,12.30
2023-05-17T18:48:41.021Z,9.30
2023-05-17T18:51:07.891Z,8.70
2023-05-17T18:53:36.353Z,6.10
2023-05-17T18:56:03.239Z,10.90
2023-05-17T18:58:30.080Z,7.20
2023-05-17T19:00:57.115Z,10.10
2023-05-17T19:03:24.461Z,7.60
2023-05-17T19:05:51.267Z,10.30
2023-05-17T19:08:18.270Z,7.50
2023-05-17T19:10:45.991Z,9.80
2023-05-17T19:13:13.922Z,11.10
2023-05-17T19:15:42.039Z,12.20
2023-05-17T19:18:09.028Z,77.90
2023-05-17T19:20:35.973Z,123.40
2023-05-17T19:23:03.716Z,73.40
2023-05-17T19:25:30.727Z,27.00
2023-05-17T19:27:57.692Z,18.20
2023-05-17T19:30:24.614Z,20.10
2023-05-17T19:32:51.593Z,25.40
2023-05-17T19:35:18.618Z,25.10
2023-05-17T19:37:45.490Z,24.50
2023-05-17T19:40:13.095Z,15.40
2023-05-17T19:42:40.127Z,23.80
2023-05-17T19:45:10.721Z,16.70
2023-05-17T19:47:37.920Z,16.80
2023-05-17T19:50:05.310Z,19.70
2023-05-17T19:52:32.193Z,16.10
2023-05-17T19:54:59.424Z,16.60
2023-05-17T19:57:26.342Z,15.20
2023-05-17T19:59:53.212Z,11.30
2023-05-17T20:02:20.207Z,10.80
2023-05-17T20:04:47.787Z,14.80
2023-05-17T20:07:15.530Z,19.80
2023-05-17T20:09:42.455Z,9.60
2023-05-17T20:12:09.339Z,14.30
2023-05-17T20:14:37.887Z,10.30
2023-05-17T20:17:04.890Z,8.90
2023-05-17T20:19:32.068Z,10.50
2023-05-17T20:21:59.056Z,12.80
2023-05-17T20:24:28.969Z,11.60
2023-05-17T20:26:59.066Z,10.70
2023-05-17T20:29:26.305Z,10.40
2023-05-17T20:31:53.297Z,11.20
2023-05-17T20:34:20.998Z,11.20
2023-05-17T20:36:47.988Z,13.40
2023-05-17T20:39:15.520Z,10.90
2023-05-17T20:41:42.487Z,11.00
2023-05-17T20:44:09.384Z,10.20
2023-05-17T20:46:36.691Z,14.20
2023-05-17T20:49:03.546Z,16.00
2023-05-17T20:51:31.116Z,10.60
2023-05-17T20:53:57.998Z,20.00
2023-05-17T20:56:25.895Z,22.70
2023-05-17T20:58:52.849Z,10.10
2023-05-17T21:01:19.932Z,14.90
2023-05-17T21:03:47.149Z,11.00
2023-05-17T21:06:14.226Z,11.40
2023-05-17T21:08:42.886Z,14.20
2023-05-17T21:11:10.091Z,15.10
2023-05-17T21:13:37.390Z,16.00
2023-05-17T21:16:04.339Z,10.00
2023-05-17T21:18:31.592Z,12.00
2023-05-17T21:20:58.453Z,17.10
2023-05-17T21:23:25.262Z,12.50
2023-05-17T21:25:52.152Z,16.00
2023-05-17T21:28:18.965Z,12.10
2023-05-17T21:30:45.969Z,13.60
2023-05-17T21:33:13.107Z,10.00
2023-05-17T21:35:40.015Z,12.80
2023-05-17T21:38:06.881Z,12.80
2023-05-17T21:40:33.879Z,10.70
2023-05-17T21:43:01.440Z,20.40
2023-05-17T21:45:28.369Z,15.30
2023-05-17T21:47:55.280Z,12.80
2023-05-17T21:50:22.401Z,13.60
2023-05-17T21:52:49.464Z,11.50
2023-05-17T21:55:16.269Z,13.10
2023-05-17T21:57:43.095Z,10.70
2023-05-17T22:00:15.315Z,17.30
2023-05-17T22:02:46.034Z,9.80
2023-05-17T22:05:13.342Z,10.50
2023-05-17T22:07:40.345Z,14.10
2023-05-17T22:10:09.417Z,12.30
2023-05-17T22:12:38.475Z,9.70
2023-05-17T22:15:06.299Z,14.20
2023-05-17T22:17:47.069Z,10.90
2023-05-17T22:20:19.759Z,11.10
2023-05-17T22:22:46.823Z,12.40
2023-05-17T22:25:15.632Z,9.60
2023-05-17T22:27:42.909Z,10.40
2023-05-17T22:30:10.675Z,8.00
2023-05-17T22:32:37.687Z,11.60
2023-05-17T22:35:05.882Z,10.90
2023-05-17T22:37:33.067Z,8.10
2023-05-17T22:40:00.063Z,8.20
2023-05-17T22:42:27.319Z,13.60
2023-05-17T22:44:54.212Z,8.20
2023-05-17T22:47:23.001Z,13.50
2023-05-17T22:49:52.724Z,8.40
2023-05-17T22:52:20.075Z,8.30
2023-05-17T22:54:46.906Z,14.40
2023-05-17T22:57:13.832Z,13.10
2023-05-17T22:59:44.043Z,9.70
2023-05-17T23:02:12.376Z,12.50
2023-05-17T23:04:40.257Z,10.60
2023-05-17T23:07:10.214Z,8.50
2023-05-17T23:09:40.981Z,7.80
2023-05-17T23:12:09.062Z,10.40
2023-05-17T23:14:36.968Z,10.60
2023-05-17T23:17:04.624Z,7.20
2023-05-17T23:19:32.451Z,10.30
2023-05-17T23:22:03.492Z,11.30
2023-05-17T23:24:30.402Z,9.30
2023-05-17T23:26:57.785Z,12.90
2023-05-17T23:29:26.243Z,10.00
2023-05-17T23:31:53.518Z,11.80
2023-05-17T23:34:21.130Z,9.90
2023-05-17T23:36:48.135Z,9.80
2023-05-17T23:39:15.842Z,9.90
2023-05-17T23:41:43.173Z,10.20
2023-05-17T23:44:10.554Z,6.60
2023-05-17T23:46:38.099Z,7.30
2023-05-17T23:49:05.929Z,13.70
2023-05-17T23:51:34.706Z,8.00
2023-05-17T23:54:01.911Z,9.80
2023-05-17T23:56:28.888Z,12.40
2023-05-17T23:58:56.138Z,11.80
